sensor_id;sensor_type;location;lat;lon;timestamp;P1;durP1;ratioP1;P2;durP2;ratioP2
68379;SDS011;57711;53.196;19.638;2023-05-07T00:02:04;28.90;;;13.20;;
68379;SDS011;57711;53.196;19.638;2023-05-07T00:04:31;28.60;;;13.30;;
68379;SDS011;57711;53.196;19.638;2023-05-07T00:07:03;27.30;;;13.80;;
68379;SDS011;57711;53.196;19.638;2023-05-07T00:09:31;29.90;;;14.00;;
68379;SDS011;57711;53.196;19.638;2023-05-07T00:11:58;32.30;;;14.90;;
68379;SDS011;57711;53.196;19.638;2023-05-07T00:14:25;25.40;;;12.60;;
68379;SDS011;57711;53.196;19.638;2023-05-07T00:16:52;21.10;;;10.60;;
68379;SDS011;57711;53.196;19.638;2023-05-07T00:19:19;24.30;;;11.40;;
68379;SDS011;57711;53.196;19.638;2023-05-07T00:21:46;22.00;;;11.10;;
68379;SDS011;57711;53.196;19.638;2023-05-07T00:24:13;21.80;;;11.20;;
68379;SDS011;57711;53.196;19.638;2023-05-07T00:26:41;26.60;;;11.20;;
68379;SDS011;57711;53.196;19.638;2023-05-07T00:29:08;22.40;;;11.00;;
68379;SDS011;57711;53.196;19.638;2023-05-07T00:31:35;20.50;;;10.50;;
68379;SDS011;57711;53.196;19.638;2023-05-07T00:34:03;18.90;;;10.40;;
68379;SDS011;57711;53.196;19.638;2023-05-07T00:36:30;25.10;;;11.00;;
68379;SDS011;57711;53.196;19.638;2023-05-07T00:38:58;21.10;;;10.20;;
68379;SDS011;57711;53.196;19.638;2023-05-07T00:41:27;17.90;;;9.70;;
68379;SDS011;57711;53.196;19.638;2023-05-07T00:43:54;21.60;;;11.20;;
68379;SDS011;57711;53.196;19.638;2023-05-07T00:46:21;22.20;;;11.00;;
68379;SDS011;57711;53.196;19.638;2023-05-07T00:48:52;19.90;;;10.30;;
68379;SDS011;57711;53.196;19.638;2023-05-07T00:51:20;21.50;;;10.00;;
68379;SDS011;57711;53.196;19.638;2023-05-07T00:53:47;20.20;;;9.70;;
68379;SDS011;57711;53.196;19.638;2023-05-07T00:56:14;22.30;;;9.80;;
68379;SDS011;57711;53.196;19.638;2023-05-07T00:58:42;24.30;;;10.90;;
68379;SDS011;57711;53.196;19.638;2023-05-07T01:01:09;18.40;;;10.50;;
68379;SDS011;57711;53.196;19.638;2023-05-07T01:03:37;16.80;;;9.30;;
68379;SDS011;57711;53.196;19.638;2023-05-07T01:06:05;16.00;;;8.10;;
68379;SDS011;57711;53.196;19.638;2023-05-07T01:08:33;11.40;;;7.20;;
68379;SDS011;57711;53.196;19.638;2023-05-07T01:11:02;16.40;;;7.20;;
68379;SDS011;57711;53.196;19.638;2023-05-07T01:13:30;11.00;;;6.50;;
68379;SDS011;57711;53.196;19.638;2023-05-07T01:15:58;15.80;;;6.60;;
68379;SDS011;57711;53.196;19.638;2023-05-07T01:18:25;9.80;;;6.60;;
68379;SDS011;57711;53.196;19.638;2023-05-07T01:20:53;18.60;;;9.10;;
68379;SDS011;57711;53.196;19.638;2023-05-07T01:23:25;16.50;;;7.00;;
68379;SDS011;57711;53.196;19.638;2023-05-07T01:25:54;12.40;;;5.90;;
68379;SDS011;57711;53.196;19.638;2023-05-07T01:28:23;9.70;;;5.60;;
68379;SDS011;57711;53.196;19.638;2023-05-07T01:30:51;9.90;;;5.40;;
68379;SDS011;57711;53.196;19.638;2023-05-07T01:33:22;8.70;;;5.90;;
68379;SDS011;57711;53.196;19.638;2023-05-07T01:35:52;7.00;;;4.90;;
68379;SDS011;57711;53.196;19.638;2023-05-07T01:38:21;10.30;;;5.60;;
68379;SDS011;57711;53.196;19.638;2023-05-07T01:40:50;16.40;;;7.20;;
68379;SDS011;57711;53.196;19.638;2023-05-07T01:43:18;12.90;;;7.60;;
68379;SDS011;57711;53.196;19.638;2023-05-07T01:45:46;12.20;;;6.20;;
68379;SDS011;57711;53.196;19.638;2023-05-07T01:48:15;13.60;;;6.70;;
68379;SDS011;57711;53.196;19.638;2023-05-07T01:50:43;10.20;;;6.30;;
68379;SDS011;57711;53.196;19.638;2023-05-07T01:53:11;16.20;;;6.40;;
68379;SDS011;57711;53.196;19.638;2023-05-07T01:55:38;8.00;;;5.30;;
68379;SDS011;57711;53.196;19.638;2023-05-07T01:58:06;9.00;;;5.30;;
68379;SDS011;57711;53.196;19.638;2023-05-07T02:00:34;8.80;;;5.30;;
68379;SDS011;57711;53.196;19.638;2023-05-07T02:03:01;11.40;;;5.10;;
68379;SDS011;57711;53.196;19.638;2023-05-07T02:05:39;7.50;;;5.30;;
68379;SDS011;57711;53.196;19.638;2023-05-07T02:08:13;8.80;;;5.30;;
68379;SDS011;57711;53.196;19.638;2023-05-07T02:10:41;16.60;;;5.40;;
68379;SDS011;57711;53.196;19.638;2023-05-07T02:13:09;10.30;;;6.20;;
68379;SDS011;57711;53.196;19.638;2023-05-07T02:15:36;12.00;;;6.10;;
68379;SDS011;57711;53.196;19.638;2023-05-07T02:18:04;8.70;;;5.50;;
68379;SDS011;57711;53.196;19.638;2023-05-07T02:20:33;16.00;;;5.80;;
68379;SDS011;57711;53.196;19.638;2023-05-07T02:23:01;11.50;;;5.70;;
68379;SDS011;57711;53.196;19.638;2023-05-07T02:25:28;9.30;;;4.90;;
68379;SDS011;57711;53.196;19.638;2023-05-07T02:27:57;10.00;;;5.70;;
68379;SDS011;57711;53.196;19.638;2023-05-07T02:30:32;10.90;;;5.40;;
68379;SDS011;57711;53.196;19.638;2023-05-07T02:33:00;10.70;;;5.30;;
68379;SDS011;57711;53.196;19.638;2023-05-07T02:35:27;12.40;;;5.10;;
68379;SDS011;57711;53.196;19.638;2023-05-07T02:37:54;16.30;;;6.30;;
68379;SDS011;57711;53.196;19.638;2023-05-07T02:40:23;10.00;;;5.60;;
68379;SDS011;57711;53.196;19.638;2023-05-07T02:42:50;11.60;;;6.80;;
68379;SDS011;57711;53.196;19.638;2023-05-07T02:45:17;7.60;;;4.90;;
68379;SDS011;57711;53.196;19.638;2023-05-07T02:47:45;10.00;;;5.10;;
68379;SDS011;57711;53.196;19.638;2023-05-07T02:50:13;9.30;;;4.50;;
68379;SDS011;57711;53.196;19.638;2023-05-07T02:52:40;9.00;;;4.70;;
68379;SDS011;57711;53.196;19.638;2023-05-07T02:55:08;15.10;;;5.10;;
68379;SDS011;57711;53.196;19.638;2023-05-07T02:57:35;14.20;;;5.50;;
68379;SDS011;57711;53.196;19.638;2023-05-07T03:00:13;13.40;;;5.20;;
68379;SDS011;57711;53.196;19.638;2023-05-07T03:02:47;8.20;;;5.30;;
68379;SDS011;57711;53.196;19.638;2023-05-07T03:05:14;9.10;;;5.30;;
68379;SDS011;57711;53.196;19.638;2023-05-07T03:07:41;13.10;;;5.60;;
68379;SDS011;57711;53.196;19.638;2023-05-07T03:10:12;8.00;;;5.30;;
68379;SDS011;57711;53.196;19.638;2023-05-07T03:12:39;8.00;;;5.20;;
68379;SDS011;57711;53.196;19.638;2023-05-07T03:15:08;10.80;;;5.10;;
68379;SDS011;57711;53.196;19.638;2023-05-07T03:17:37;8.20;;;5.20;;
68379;SDS011;57711;53.196;19.638;2023-05-07T03:20:04;7.00;;;4.50;;
68379;SDS011;57711;53.196;19.638;2023-05-07T03:22:32;8.40;;;4.80;;
68379;SDS011;57711;53.196;19.638;2023-05-07T03:25:01;12.30;;;5.50;;
68379;SDS011;57711;53.196;19.638;2023-05-07T03:27:28;12.60;;;7.50;;
68379;SDS011;57711;53.196;19.638;2023-05-07T03:29:55;16.40;;;7.20;;
68379;SDS011;57711;53.196;19.638;2023-05-07T03:32:22;9.60;;;5.90;;
68379;SDS011;57711;53.196;19.638;2023-05-07T03:34:50;13.40;;;5.90;;
68379;SDS011;57711;53.196;19.638;2023-05-07T03:37:18;11.90;;;5.80;;
68379;SDS011;57711;53.196;19.638;2023-05-07T03:39:45;9.40;;;4.90;;
68379;SDS011;57711;53.196;19.638;2023-05-07T03:42:12;7.40;;;4.80;;
68379;SDS011;57711;53.196;19.638;2023-05-07T03:44:39;11.90;;;5.10;;
68379;SDS011;57711;53.196;19.638;2023-05-07T03:47:06;14.50;;;5.70;;
68379;SDS011;57711;53.196;19.638;2023-05-07T03:49:34;9.40;;;4.90;;
68379;SDS011;57711;53.196;19.638;2023-05-07T03:52:01;11.20;;;6.50;;
68379;SDS011;57711;53.196;19.638;2023-05-07T03:54:30;17.80;;;6.10;;
68379;SDS011;57711;53.196;19.638;2023-05-07T03:56:57;14.10;;;8.30;;
68379;SDS011;57711;53.196;19.638;2023-05-07T03:59:25;14.40;;;8.20;;
68379;SDS011;57711;53.196;19.638;2023-05-07T04:01:52;10.10;;;6.70;;
68379;SDS011;57711;53.196;19.638;2023-05-07T04:04:21;9.50;;;6.50;;
68379;SDS011;57711;53.196;19.638;2023-05-07T04:06:48;13.40;;;6.90;;
68379;SDS011;57711;53.196;19.638;2023-05-07T04:09:16;11.60;;;5.80;;
68379;SDS011;57711;53.196;19.638;2023-05-07T04:11:44;10.90;;;6.10;;
68379;SDS011;57711;53.196;19.638;2023-05-07T04:14:11;13.70;;;8.60;;
68379;SDS011;57711;53.196;19.638;2023-05-07T04:16:38;11.40;;;7.70;;
68379;SDS011;57711;53.196;19.638;2023-05-07T04:19:06;15.60;;;9.60;;
68379;SDS011;57711;53.196;19.638;2023-05-07T04:21:34;28.30;;;16.30;;
68379;SDS011;57711;53.196;19.638;2023-05-07T04:24:02;21.60;;;15.60;;
68379;SDS011;57711;53.196;19.638;2023-05-07T04:26:30;24.50;;;18.10;;
68379;SDS011;57711;53.196;19.638;2023-05-07T04:28:58;16.00;;;11.50;;
68379;SDS011;57711;53.196;19.638;2023-05-07T04:31:29;13.90;;;7.10;;
68379;SDS011;57711;53.196;19.638;2023-05-07T04:33:58;12.30;;;5.70;;
68379;SDS011;57711;53.196;19.638;2023-05-07T04:36:25;10.50;;;6.10;;
68379;SDS011;57711;53.196;19.638;2023-05-07T04:39:02;9.80;;;5.70;;
68379;SDS011;57711;53.196;19.638;2023-05-07T04:41:29;8.20;;;5.40;;
68379;SDS011;57711;53.196;19.638;2023-05-07T04:43:57;8.30;;;5.10;;
68379;SDS011;57711;53.196;19.638;2023-05-07T04:46:27;8.40;;;4.70;;
68379;SDS011;57711;53.196;19.638;2023-05-07T04:48:56;8.50;;;5.60;;
68379;SDS011;57711;53.196;19.638;2023-05-07T04:51:23;6.10;;;5.20;;
68379;SDS011;57711;53.196;19.638;2023-05-07T04:53:50;7.90;;;4.80;;
68379;SDS011;57711;53.196;19.638;2023-05-07T04:56:17;9.30;;;4.20;;
68379;SDS011;57711;53.196;19.638;2023-05-07T04:58:45;10.10;;;3.80;;
68379;SDS011;57711;53.196;19.638;2023-05-07T05:01:13;10.10;;;4.20;;
68379;SDS011;57711;53.196;19.638;2023-05-07T05:03:41;9.50;;;4.10;;
68379;SDS011;57711;53.196;19.638;2023-05-07T05:06:09;7.00;;;3.60;;
68379;SDS011;57711;53.196;19.638;2023-05-07T05:08:36;10.20;;;3.90;;
68379;SDS011;57711;53.196;19.638;2023-05-07T05:11:03;4.80;;;3.50;;
68379;SDS011;57711;53.196;19.638;2023-05-07T05:13:32;13.70;;;5.60;;
68379;SDS011;57711;53.196;19.638;2023-05-07T05:16:01;9.70;;;4.90;;
68379;SDS011;57711;53.196;19.638;2023-05-07T05:18:29;6.30;;;4.00;;
68379;SDS011;57711;53.196;19.638;2023-05-07T05:20:56;10.10;;;4.30;;
68379;SDS011;57711;53.196;19.638;2023-05-07T05:23:23;9.50;;;4.00;;
68379;SDS011;57711;53.196;19.638;2023-05-07T05:25:54;6.80;;;3.70;;
68379;SDS011;57711;53.196;19.638;2023-05-07T05:28:24;6.50;;;3.70;;
68379;SDS011;57711;53.196;19.638;2023-05-07T05:30:51;13.00;;;5.40;;
68379;SDS011;57711;53.196;19.638;2023-05-07T05:33:18;8.30;;;4.90;;
68379;SDS011;57711;53.196;19.638;2023-05-07T05:35:46;24.90;;;14.60;;
68379;SDS011;57711;53.196;19.638;2023-05-07T05:38:13;21.00;;;8.80;;
68379;SDS011;57711;53.196;19.638;2023-05-07T05:40:40;21.40;;;10.10;;
68379;SDS011;57711;53.196;19.638;2023-05-07T05:43:07;16.00;;;7.00;;
68379;SDS011;57711;53.196;19.638;2023-05-07T05:45:36;14.50;;;6.30;;
68379;SDS011;57711;53.196;19.638;2023-05-07T05:48:04;9.30;;;5.10;;
68379;SDS011;57711;53.196;19.638;2023-05-07T05:50:32;9.50;;;4.70;;
68379;SDS011;57711;53.196;19.638;2023-05-07T05:52:59;8.70;;;4.60;;
68379;SDS011;57711;53.196;19.638;2023-05-07T05:55:27;7.30;;;4.00;;
68379;SDS011;57711;53.196;19.638;2023-05-07T05:57:54;8.80;;;4.10;;
68379;SDS011;57711;53.196;19.638;2023-05-07T06:00:23;9.00;;;4.80;;
68379;SDS011;57711;53.196;19.638;2023-05-07T06:02:56;13.80;;;4.10;;
68379;SDS011;57711;53.196;19.638;2023-05-07T06:05:24;12.20;;;5.60;;
68379;SDS011;57711;53.196;19.638;2023-05-07T06:07:52;8.40;;;3.90;;
68379;SDS011;57711;53.196;19.638;2023-05-07T06:10:19;6.40;;;4.00;;
68379;SDS011;57711;53.196;19.638;2023-05-07T06:12:46;9.50;;;3.80;;
68379;SDS011;57711;53.196;19.638;2023-05-07T06:15:14;10.00;;;3.70;;
68379;SDS011;57711;53.196;19.638;2023-05-07T06:17:42;11.10;;;3.80;;
68379;SDS011;57711;53.196;19.638;2023-05-07T06:20:09;10.30;;;4.60;;
68379;SDS011;57711;53.196;19.638;2023-05-07T06:22:38;6.20;;;4.10;;
68379;SDS011;57711;53.196;19.638;2023-05-07T06:25:05;10.70;;;5.10;;
68379;SDS011;57711;53.196;19.638;2023-05-07T06:27:32;13.10;;;4.70;;
68379;SDS011;57711;53.196;19.638;2023-05-07T06:30:00;6.30;;;3.80;;
68379;SDS011;57711;53.196;19.638;2023-05-07T06:32:27;5.10;;;3.10;;
68379;SDS011;57711;53.196;19.638;2023-05-07T06:34:54;7.90;;;3.30;;
68379;SDS011;57711;53.196;19.638;2023-05-07T06:37:22;6.50;;;3.40;;
68379;SDS011;57711;53.196;19.638;2023-05-07T06:39:53;7.70;;;3.20;;
68379;SDS011;57711;53.196;19.638;2023-05-07T06:42:21;4.70;;;3.00;;
68379;SDS011;57711;53.196;19.638;2023-05-07T06:44:48;6.00;;;2.80;;
68379;SDS011;57711;53.196;19.638;2023-05-07T06:47:17;5.40;;;3.20;;
68379;SDS011;57711;53.196;19.638;2023-05-07T06:49:46;11.40;;;4.20;;
68379;SDS011;57711;53.196;19.638;2023-05-07T06:52:16;11.00;;;4.10;;
68379;SDS011;57711;53.196;19.638;2023-05-07T06:54:43;8.60;;;3.00;;
68379;SDS011;57711;53.196;19.638;2023-05-07T06:57:14;9.50;;;3.40;;
68379;SDS011;57711;53.196;19.638;2023-05-07T06:59:41;7.50;;;3.20;;
68379;SDS011;57711;53.196;19.638;2023-05-07T07:02:09;5.40;;;3.50;;
68379;SDS011;57711;53.196;19.638;2023-05-07T07:04:37;9.20;;;3.40;;
68379;SDS011;57711;53.196;19.638;2023-05-07T07:07:08;7.60;;;4.10;;
68379;SDS011;57711;53.196;19.638;2023-05-07T07:09:35;8.60;;;3.00;;
68379;SDS011;57711;53.196;19.638;2023-05-07T07:12:03;5.90;;;2.70;;
68379;SDS011;57711;53.196;19.638;2023-05-07T07:14:31;17.00;;;7.50;;
68379;SDS011;57711;53.196;19.638;2023-05-07T07:16:58;17.20;;;5.40;;
68379;SDS011;57711;53.196;19.638;2023-05-07T07:19:25;17.90;;;7.00;;
68379;SDS011;57711;53.196;19.638;2023-05-07T07:21:54;4.70;;;2.90;;
68379;SDS011;57711;53.196;19.638;2023-05-07T07:24:21;6.90;;;2.40;;
68379;SDS011;57711;53.196;19.638;2023-05-07T07:26:52;4.70;;;2.80;;
68379;SDS011;57711;53.196;19.638;2023-05-07T07:29:19;6.60;;;2.70;;
68379;SDS011;57711;53.196;19.638;2023-05-07T07:31:47;11.00;;;2.10;;
68379;SDS011;57711;53.196;19.638;2023-05-07T07:34:16;9.30;;;2.60;;
68379;SDS011;57711;53.196;19.638;2023-05-07T07:36:44;4.80;;;2.10;;
68379;SDS011;57711;53.196;19.638;2023-05-07T07:39:15;11.20;;;4.00;;
68379;SDS011;57711;53.196;19.638;2023-05-07T07:41:43;5.90;;;2.40;;
68379;SDS011;57711;53.196;19.638;2023-05-07T07:44:11;5.70;;;2.00;;
68379;SDS011;57711;53.196;19.638;2023-05-07T07:46:43;5.10;;;2.10;;
68379;SDS011;57711;53.196;19.638;2023-05-07T07:49:11;6.30;;;3.40;;
68379;SDS011;57711;53.196;19.638;2023-05-07T07:51:38;16.90;;;7.40;;
68379;SDS011;57711;53.196;19.638;2023-05-07T07:54:06;8.80;;;2.50;;
68379;SDS011;57711;53.196;19.638;2023-05-07T07:56:34;14.50;;;2.70;;
68379;SDS011;57711;53.196;19.638;2023-05-07T07:59:02;8.10;;;2.30;;
68379;SDS011;57711;53.196;19.638;2023-05-07T08:01:30;6.60;;;3.10;;
68379;SDS011;57711;53.196;19.638;2023-05-07T08:03:58;3.20;;;2.70;;
68379;SDS011;57711;53.196;19.638;2023-05-07T08:06:27;25.50;;;11.20;;
68379;SDS011;57711;53.196;19.638;2023-05-07T08:08:54;43.60;;;22.90;;
68379;SDS011;57711;53.196;19.638;2023-05-07T08:11:22;8.80;;;4.90;;
68379;SDS011;57711;53.196;19.638;2023-05-07T08:13:49;6.00;;;2.90;;
68379;SDS011;57711;53.196;19.638;2023-05-07T08:16:17;6.40;;;3.00;;
68379;SDS011;57711;53.196;19.638;2023-05-07T08:18:44;32.50;;;12.00;;
68379;SDS011;57711;53.196;19.638;2023-05-07T08:21:12;8.30;;;3.90;;
68379;SDS011;57711;53.196;19.638;2023-05-07T08:23:39;5.00;;;2.50;;
68379;SDS011;57711;53.196;19.638;2023-05-07T08:26:07;7.40;;;2.20;;
68379;SDS011;57711;53.196;19.638;2023-05-07T08:28:35;6.90;;;2.50;;
68379;SDS011;57711;53.196;19.638;2023-05-07T08:31:02;15.60;;;5.00;;
68379;SDS011;57711;53.196;19.638;2023-05-07T08:33:33;5.80;;;2.20;;
68379;SDS011;57711;53.196;19.638;2023-05-07T08:36:00;7.70;;;2.10;;
68379;SDS011;57711;53.196;19.638;2023-05-07T08:38:28;4.20;;;2.10;;
68379;SDS011;57711;53.196;19.638;2023-05-07T08:40:55;2.60;;;2.10;;
68379;SDS011;57711;53.196;19.638;2023-05-07T08:43:25;4.00;;;2.00;;
68379;SDS011;57711;53.196;19.638;2023-05-07T08:45:54;4.10;;;2.20;;
68379;SDS011;57711;53.196;19.638;2023-05-07T08:48:25;4.90;;;2.20;;
68379;SDS011;57711;53.196;19.638;2023-05-07T08:50:59;3.30;;;2.20;;
68379;SDS011;57711;53.196;19.638;2023-05-07T08:53:26;4.60;;;2.00;;
68379;SDS011;57711;53.196;19.638;2023-05-07T08:55:53;4.00;;;2.40;;
68379;SDS011;57711;53.196;19.638;2023-05-07T08:58:21;6.00;;;2.60;;
68379;SDS011;57711;53.196;19.638;2023-05-07T09:00:49;2.60;;;1.80;;
68379;SDS011;57711;53.196;19.638;2023-05-07T09:03:19;11.60;;;2.00;;
68379;SDS011;57711;53.196;19.638;2023-05-07T09:05:48;8.80;;;1.90;;
68379;SDS011;57711;53.196;19.638;2023-05-07T09:08:16;11.80;;;2.60;;
68379;SDS011;57711;53.196;19.638;2023-05-07T09:10:44;6.80;;;2.10;;
68379;SDS011;57711;53.196;19.638;2023-05-07T09:13:12;3.60;;;1.40;;
68379;SDS011;57711;53.196;19.638;2023-05-07T09:15:42;10.60;;;5.00;;
68379;SDS011;57711;53.196;19.638;2023-05-07T09:18:10;4.50;;;2.20;;
68379;SDS011;57711;53.196;19.638;2023-05-07T09:20:37;13.00;;;2.30;;
68379;SDS011;57711;53.196;19.638;2023-05-07T09:23:06;4.70;;;2.10;;
68379;SDS011;57711;53.196;19.638;2023-05-07T09:25:34;9.70;;;4.10;;
68379;SDS011;57711;53.196;19.638;2023-05-07T09:28:07;6.70;;;3.10;;
68379;SDS011;57711;53.196;19.638;2023-05-07T09:30:36;4.30;;;2.30;;
68379;SDS011;57711;53.196;19.638;2023-05-07T09:33:04;9.50;;;2.00;;
68379;SDS011;57711;53.196;19.638;2023-05-07T09:35:33;6.80;;;4.00;;
68379;SDS011;57711;53.196;19.638;2023-05-07T09:38:04;13.30;;;4.30;;
68379;SDS011;57711;53.196;19.638;2023-05-07T09:40:33;5.60;;;2.80;;
68379;SDS011;57711;53.196;19.638;2023-05-07T09:43:10;4.90;;;2.60;;
68379;SDS011;57711;53.196;19.638;2023-05-07T09:45:41;11.10;;;2.20;;
68379;SDS011;57711;53.196;19.638;2023-05-07T09:48:10;7.20;;;4.40;;
68379;SDS011;57711;53.196;19.638;2023-05-07T09:50:40;10.50;;;2.50;;
68379;SDS011;57711;53.196;19.638;2023-05-07T09:53:17;5.50;;;2.10;;
68379;SDS011;57711;53.196;19.638;2023-05-07T09:55:45;4.30;;;2.50;;
68379;SDS011;57711;53.196;19.638;2023-05-07T09:58:13;8.70;;;2.50;;
68379;SDS011;57711;53.196;19.638;2023-05-07T10:00:44;9.40;;;4.40;;
68379;SDS011;57711;53.196;19.638;2023-05-07T10:03:12;16.30;;;7.60;;
68379;SDS011;57711;53.196;19.638;2023-05-07T10:05:48;10.00;;;4.20;;
68379;SDS011;57711;53.196;19.638;2023-05-07T10:08:17;7.60;;;2.50;;
68379;SDS011;57711;53.196;19.638;2023-05-07T10:10:47;3.70;;;1.90;;
68379;SDS011;57711;53.196;19.638;2023-05-07T10:13:18;5.40;;;2.00;;
68379;SDS011;57711;53.196;19.638;2023-05-07T10:15:48;6.70;;;2.50;;
68379;SDS011;57711;53.196;19.638;2023-05-07T10:18:17;6.40;;;1.90;;
68379;SDS011;57711;53.196;19.638;2023-05-07T10:20:49;5.40;;;2.00;;
68379;SDS011;57711;53.196;19.638;2023-05-07T10:23:21;3.50;;;2.30;;
68379;SDS011;57711;53.196;19.638;2023-05-07T10:25:53;17.70;;;4.80;;
68379;SDS011;57711;53.196;19.638;2023-05-07T10:28:30;18.00;;;5.10;;
68379;SDS011;57711;53.196;19.638;2023-05-07T10:33:44;7.20;;;2.10;;
68379;SDS011;57711;53.196;19.638;2023-05-07T10:36:14;3.60;;;1.90;;
68379;SDS011;57711;53.196;19.638;2023-05-07T10:38:42;4.30;;;1.80;;
68379;SDS011;57711;53.196;19.638;2023-05-07T10:41:10;7.80;;;1.80;;
68379;SDS011;57711;53.196;19.638;2023-05-07T10:43:43;3.70;;;1.70;;
68379;SDS011;57711;53.196;19.638;2023-05-07T10:46:18;3.80;;;1.70;;
68379;SDS011;57711;53.196;19.638;2023-05-07T10:51:34;3.50;;;1.60;;
68379;SDS011;57711;53.196;19.638;2023-05-07T10:54:22;3.60;;;2.10;;
68379;SDS011;57711;53.196;19.638;2023-05-07T11:00:01;4.30;;;1.40;;
68379;SDS011;57711;53.196;19.638;2023-05-07T11:05:37;7.80;;;2.60;;
68379;SDS011;57711;53.196;19.638;2023-05-07T11:08:13;3.80;;;3.10;;
68379;SDS011;57711;53.196;19.638;2023-05-07T11:13:49;6.70;;;2.20;;
68379;SDS011;57711;53.196;19.638;2023-05-07T11:16:23;5.60;;;1.70;;
68379;SDS011;57711;53.196;19.638;2023-05-07T11:18:59;2.80;;;1.50;;
68379;SDS011;57711;53.196;19.638;2023-05-07T11:21:40;5.10;;;1.40;;
68379;SDS011;57711;53.196;19.638;2023-05-07T11:24:23;5.20;;;1.80;;
68379;SDS011;57711;53.196;19.638;2023-05-07T11:26:54;9.30;;;1.90;;
68379;SDS011;57711;53.196;19.638;2023-05-07T11:29:23;3.00;;;1.70;;
68379;SDS011;57711;53.196;19.638;2023-05-07T11:31:54;3.50;;;1.50;;
68379;SDS011;57711;53.196;19.638;2023-05-07T11:34:24;9.00;;;4.00;;
68379;SDS011;57711;53.196;19.638;2023-05-07T11:36:54;2.50;;;1.50;;
68379;SDS011;57711;53.196;19.638;2023-05-07T11:39:32;4.80;;;2.30;;
68379;SDS011;57711;53.196;19.638;2023-05-07T11:42:00;1.50;;;1.30;;
68379;SDS011;57711;53.196;19.638;2023-05-07T11:44:43;3.50;;;1.50;;
68379;SDS011;57711;53.196;19.638;2023-05-07T11:47:19;7.50;;;2.00;;
68379;SDS011;57711;53.196;19.638;2023-05-07T11:49:47;5.60;;;1.60;;
68379;SDS011;57711;53.196;19.638;2023-05-07T11:52:16;1.70;;;1.50;;
68379;SDS011;57711;53.196;19.638;2023-05-07T11:54:55;4.50;;;1.70;;
68379;SDS011;57711;53.196;19.638;2023-05-07T11:57:23;5.60;;;1.50;;
68379;SDS011;57711;53.196;19.638;2023-05-07T11:59:54;3.70;;;1.40;;
68379;SDS011;57711;53.196;19.638;2023-05-07T12:02:22;3.20;;;1.70;;
68379;SDS011;57711;53.196;19.638;2023-05-07T12:04:52;7.30;;;2.00;;
68379;SDS011;57711;53.196;19.638;2023-05-07T12:07:20;3.50;;;1.60;;
68379;SDS011;57711;53.196;19.638;2023-05-07T12:09:48;7.40;;;2.10;;
68379;SDS011;57711;53.196;19.638;2023-05-07T12:12:15;3.90;;;1.50;;
68379;SDS011;57711;53.196;19.638;2023-05-07T12:14:44;7.90;;;1.80;;
68379;SDS011;57711;53.196;19.638;2023-05-07T12:17:13;2.80;;;1.40;;
68379;SDS011;57711;53.196;19.638;2023-05-07T12:19:41;3.10;;;1.30;;
68379;SDS011;57711;53.196;19.638;2023-05-07T12:22:11;7.40;;;1.60;;
68379;SDS011;57711;53.196;19.638;2023-05-07T12:24:43;6.00;;;2.20;;
68379;SDS011;57711;53.196;19.638;2023-05-07T12:27:11;8.30;;;1.80;;
68379;SDS011;57711;53.196;19.638;2023-05-07T12:29:39;5.70;;;1.30;;
68379;SDS011;57711;53.196;19.638;2023-05-07T12:32:12;5.40;;;1.10;;
68379;SDS011;57711;53.196;19.638;2023-05-07T12:34:41;6.20;;;1.50;;
68379;SDS011;57711;53.196;19.638;2023-05-07T12:37:11;7.90;;;1.40;;
68379;SDS011;57711;53.196;19.638;2023-05-07T12:39:48;7.30;;;1.20;;
68379;SDS011;57711;53.196;19.638;2023-05-07T12:42:19;5.20;;;1.50;;
68379;SDS011;57711;53.196;19.638;2023-05-07T12:44:52;5.90;;;2.60;;
68379;SDS011;57711;53.196;19.638;2023-05-07T12:47:19;8.80;;;4.40;;
68379;SDS011;57711;53.196;19.638;2023-05-07T12:49:47;5.70;;;3.80;;
68379;SDS011;57711;53.196;19.638;2023-05-07T12:52:14;9.30;;;4.70;;
68379;SDS011;57711;53.196;19.638;2023-05-07T12:54:41;8.20;;;3.90;;
68379;SDS011;57711;53.196;19.638;2023-05-07T12:57:09;5.10;;;2.20;;
68379;SDS011;57711;53.196;19.638;2023-05-07T12:59:37;9.10;;;1.90;;
68379;SDS011;57711;53.196;19.638;2023-05-07T13:02:06;5.60;;;1.70;;
68379;SDS011;57711;53.196;19.638;2023-05-07T13:04:36;3.30;;;1.50;;
68379;SDS011;57711;53.196;19.638;2023-05-07T13:07:03;12.90;;;1.70;;
68379;SDS011;57711;53.196;19.638;2023-05-07T13:09:30;6.50;;;1.60;;
68379;SDS011;57711;53.196;19.638;2023-05-07T13:11:58;7.40;;;2.00;;
68379;SDS011;57711;53.196;19.638;2023-05-07T13:14:28;3.10;;;1.30;;
68379;SDS011;57711;53.196;19.638;2023-05-07T13:16:55;5.40;;;1.40;;
68379;SDS011;57711;53.196;19.638;2023-05-07T13:19:22;2.50;;;1.30;;
68379;SDS011;57711;53.196;19.638;2023-05-07T13:21:49;3.30;;;1.50;;
68379;SDS011;57711;53.196;19.638;2023-05-07T13:24:16;3.40;;;1.40;;
68379;SDS011;57711;53.196;19.638;2023-05-07T13:26:44;2.80;;;1.70;;
68379;SDS011;57711;53.196;19.638;2023-05-07T13:29:12;16.80;;;1.80;;
68379;SDS011;57711;53.196;19.638;2023-05-07T13:31:39;4.50;;;1.50;;
68379;SDS011;57711;53.196;19.638;2023-05-07T13:34:10;3.30;;;1.50;;
68379;SDS011;57711;53.196;19.638;2023-05-07T13:36:37;6.60;;;1.60;;
68379;SDS011;57711;53.196;19.638;2023-05-07T13:39:06;8.60;;;1.80;;
68379;SDS011;57711;53.196;19.638;2023-05-07T13:41:34;22.60;;;4.00;;
68379;SDS011;57711;53.196;19.638;2023-05-07T13:44:01;10.80;;;3.50;;
68379;SDS011;57711;53.196;19.638;2023-05-07T13:46:28;5.40;;;1.80;;
68379;SDS011;57711;53.196;19.638;2023-05-07T13:48:56;5.50;;;1.60;;
68379;SDS011;57711;53.196;19.638;2023-05-07T13:51:23;6.60;;;1.70;;
68379;SDS011;57711;53.196;19.638;2023-05-07T13:53:51;3.70;;;1.40;;
68379;SDS011;57711;53.196;19.638;2023-05-07T13:56:19;11.20;;;2.50;;
68379;SDS011;57711;53.196;19.638;2023-05-07T13:58:47;3.10;;;1.40;;
68379;SDS011;57711;53.196;19.638;2023-05-07T14:01:26;21.60;;;1.80;;
68379;SDS011;57711;53.196;19.638;2023-05-07T14:03:53;12.90;;;2.70;;
68379;SDS011;57711;53.196;19.638;2023-05-07T14:06:22;2.60;;;1.60;;
68379;SDS011;57711;53.196;19.638;2023-05-07T14:08:49;4.60;;;1.30;;
68379;SDS011;57711;53.196;19.638;2023-05-07T14:11:16;4.60;;;2.40;;
68379;SDS011;57711;53.196;19.638;2023-05-07T14:13:44;11.40;;;4.30;;
68379;SDS011;57711;53.196;19.638;2023-05-07T14:16:11;13.90;;;3.70;;
68379;SDS011;57711;53.196;19.638;2023-05-07T14:18:38;11.90;;;3.40;;
68379;SDS011;57711;53.196;19.638;2023-05-07T14:21:06;3.50;;;2.20;;
68379;SDS011;57711;53.196;19.638;2023-05-07T14:23:33;6.00;;;3.30;;
68379;SDS011;57711;53.196;19.638;2023-05-07T14:26:00;3.50;;;1.90;;
68379;SDS011;57711;53.196;19.638;2023-05-07T14:28:28;4.20;;;1.60;;
68379;SDS011;57711;53.196;19.638;2023-05-07T14:30:55;9.20;;;4.80;;
68379;SDS011;57711;53.196;19.638;2023-05-07T14:33:22;10.00;;;5.90;;
68379;SDS011;57711;53.196;19.638;2023-05-07T14:35:49;14.70;;;3.80;;
68379;SDS011;57711;53.196;19.638;2023-05-07T14:38:16;19.30;;;4.80;;
68379;SDS011;57711;53.196;19.638;2023-05-07T14:40:44;5.60;;;2.20;;
68379;SDS011;57711;53.196;19.638;2023-05-07T14:43:11;8.90;;;3.50;;
68379;SDS011;57711;53.196;19.638;2023-05-07T14:45:38;11.10;;;3.20;;
68379;SDS011;57711;53.196;19.638;2023-05-07T14:48:06;12.70;;;2.20;;
68379;SDS011;57711;53.196;19.638;2023-05-07T14:50:33;5.70;;;2.30;;
68379;SDS011;57711;53.196;19.638;2023-05-07T14:53:00;6.40;;;2.00;;